createdAt,value
2018-06-22T00:00:18.468Z,1.30
2018-06-22T00:02:48.068Z,1.20
2018-06-22T00:05:17.674Z,1.10
2018-06-22T00:07:46.974Z,1.00
2018-06-22T00:10:16.272Z,1.60
2018-06-22T00:12:45.677Z,1.50
2018-06-22T00:15:14.880Z,1.57
2018-06-22T00:17:44.276Z,1.20
2018-06-22T00:20:13.789Z,1.50
2018-06-22T00:22:42.876Z,1.10
2018-06-22T00:25:12.173Z,1.40
2018-06-22T00:27:41.784Z,1.10
2018-06-22T00:30:16.006Z,1.20
2018-06-22T00:32:45.295Z,1.40
2018-06-22T00:35:14.394Z,1.20
2018-06-22T00:37:43.694Z,1.50
2018-06-22T00:40:13.542Z,1.23
2018-06-22T00:42:42.801Z,1.20
2018-06-22T00:45:12.203Z,1.30
2018-06-22T00:47:41.401Z,1.17
2018-06-22T00:50:10.708Z,1.07
2018-06-22T00:52:40.232Z,0.90
2018-06-22T00:55:09.734Z,1.10
2018-06-22T00:57:39.534Z,1.00
2018-06-22T01:00:09.026Z,0.90
2018-06-22T01:02:38.632Z,1.00
2018-06-22T01:05:08.037Z,0.70
2018-06-22T01:07:37.437Z,0.57
2018-06-22T01:10:07.048Z,1.00
2018-06-22T01:12:36.652Z,0.80
2018-06-22T01:15:06.272Z,1.10
2018-06-22T01:17:35.663Z,1.00
2018-06-22T01:20:05.192Z,0.80
2018-06-22T01:22:34.465Z,0.70
2018-06-22T01:25:03.668Z,1.10
2018-06-22T01:27:32.852Z,0.60
2018-06-22T01:30:02.263Z,0.83
2018-06-22T01:32:31.563Z,0.60
2018-06-22T01:35:00.965Z,0.93
2018-06-22T01:37:30.393Z,0.70
2018-06-22T01:39:59.771Z,0.77
2018-06-22T01:42:28.862Z,0.90
2018-06-22T01:44:58.160Z,0.60
2018-06-22T01:47:27.468Z,0.77
2018-06-22T01:49:57.272Z,0.70
2018-06-22T01:52:26.476Z,0.80
2018-06-22T01:54:55.773Z,0.80
2018-06-22T01:57:25.184Z,0.87
2018-06-22T01:59:54.268Z,0.80
2018-06-22T02:02:23.466Z,0.80
2018-06-22T02:04:53.185Z,0.83
2018-06-22T02:07:22.582Z,0.80
2018-06-22T02:09:52.417Z,0.97
2018-06-22T02:12:21.688Z,0.80
2018-06-22T02:14:51.112Z,1.00
2018-06-22T02:17:20.501Z,1.20
2018-06-22T02:19:49.788Z,1.10
2018-06-22T02:22:19.199Z,0.80
2018-06-22T02:24:48.602Z,0.80
2018-06-22T02:27:17.897Z,0.77
2018-06-22T02:29:47.605Z,0.80
2018-06-22T02:32:16.907Z,0.80
2018-06-22T02:34:46.523Z,0.90
2018-06-22T02:37:15.816Z,1.00
2018-06-22T02:39:45.529Z,0.90
2018-06-22T02:42:14.924Z,1.30
2018-06-22T02:44:44.649Z,1.07
2018-06-22T02:47:13.930Z,0.87
2018-06-22T02:49:43.230Z,1.20
2018-06-22T02:52:12.631Z,1.03
2018-06-22T02:54:42.264Z,1.20
2018-06-22T02:57:11.644Z,1.20
2018-06-22T02:59:41.162Z,1.10
2018-06-22T03:02:10.455Z,0.97
2018-06-22T03:04:40.157Z,1.10
2018-06-22T03:07:09.458Z,1.17
2018-06-22T03:09:39.309Z,0.73
2018-06-22T03:12:08.784Z,1.00
2018-06-22T03:14:38.072Z,0.90
2018-06-22T03:17:07.268Z,1.00
2018-06-22T03:19:36.792Z,0.70
2018-06-22T03:22:06.175Z,0.90
2018-06-22T03:24:36.300Z,1.00
2018-06-22T03:27:05.697Z,1.37
2018-06-22T03:29:35.313Z,1.20
2018-06-22T03:32:04.949Z,0.93
2018-06-22T03:34:34.210Z,0.90
2018-06-22T03:37:04.228Z,0.70
2018-06-22T03:39:33.954Z,1.10
2018-06-22T03:42:03.660Z,1.20
2018-06-22T03:44:32.846Z,1.00
2018-06-22T03:47:02.146Z,0.93
2018-06-22T03:49:31.440Z,1.43
2018-06-22T03:52:01.149Z,1.00
2018-06-22T03:54:30.760Z,1.33
2018-06-22T03:57:00.161Z,0.90
2018-06-22T03:59:29.767Z,1.00
2018-06-22T04:01:59.783Z,1.30
2018-06-22T04:04:29.596Z,1.00
2018-06-22T04:06:59.201Z,1.13
2018-06-22T04:09:28.613Z,1.23
2018-06-22T04:11:58.212Z,1.17
2018-06-22T04:14:28.025Z,1.40
2018-06-22T04:16:58.147Z,1.00
2018-06-22T04:19:28.168Z,1.33
2018-06-22T04:21:57.782Z,1.60
2018-06-22T04:24:27.233Z,1.10
2018-06-22T04:26:56.773Z,1.33
2018-06-22T04:29:26.076Z,0.90
2018-06-22T04:31:55.888Z,1.13
2018-06-22T04:34:25.595Z,1.43
2018-06-22T04:36:55.204Z,1.50
2018-06-22T04:39:24.709Z,1.57
2018-06-22T04:41:54.416Z,0.90
2018-06-22T04:44:23.922Z,0.97
2018-06-22T04:46:53.526Z,1.20
2018-06-22T04:49:23.145Z,1.10
2018-06-22T04:51:52.640Z,1.43
2018-06-22T04:54:22.149Z,1.17
2018-06-22T04:56:52.159Z,0.77
2018-06-22T04:59:22.796Z,1.03
2018-06-22T05:01:52.726Z,1.00
2018-06-22T05:04:22.925Z,0.90
2018-06-22T05:06:52.640Z,0.77
2018-06-22T05:09:22.284Z,1.10
2018-06-22T05:11:52.155Z,0.80
2018-06-22T05:14:22.284Z,1.53
2018-06-22T05:16:54.240Z,0.80
2018-06-22T05:19:24.786Z,1.10
2018-06-22T05:21:54.580Z,1.00
2018-06-22T05:24:24.493Z,0.90
2018-06-22T05:26:54.610Z,1.20
2018-06-22T05:29:24.013Z,1.10
2018-06-22T05:31:54.046Z,1.13
2018-06-22T05:34:24.150Z,1.13
2018-06-22T05:36:54.592Z,1.50
2018-06-22T05:39:24.493Z,1.30
2018-06-22T05:41:54.406Z,1.00
2018-06-22T05:44:23.770Z,1.23
2018-06-22T05:46:53.414Z,1.37
2018-06-22T05:49:24.567Z,1.27
2018-06-22T05:51:54.160Z,0.80
2018-06-22T05:54:23.975Z,1.20
2018-06-22T05:56:55.117Z,1.10
2018-06-22T05:59:25.032Z,1.10
2018-06-22T06:01:55.153Z,1.13
2018-06-22T06:04:25.172Z,1.10
2018-06-22T06:06:55.188Z,1.20
2018-06-22T06:09:25.098Z,1.40
2018-06-22T06:11:55.626Z,1.00
2018-06-22T06:14:25.446Z,1.10
2018-06-22T06:16:55.974Z,1.70
2018-06-22T06:19:25.878Z,1.20
2018-06-22T06:21:56.718Z,1.20
2018-06-22T06:24:26.551Z,1.43
2018-06-22T06:26:56.234Z,1.23
2018-06-22T06:29:26.149Z,1.07
2018-06-22T06:31:55.965Z,1.17
2018-06-22T06:34:26.031Z,1.77
2018-06-22T06:36:55.772Z,1.00
2018-06-22T06:39:26.014Z,1.20
2018-06-22T06:41:55.956Z,1.20
2018-06-22T06:44:25.836Z,1.00
2018-06-22T06:46:56.165Z,1.00
2018-06-22T06:49:26.591Z,0.83
2018-06-22T06:51:56.711Z,1.30
2018-06-22T06:54:26.216Z,1.27
2018-06-22T06:56:56.130Z,1.00
2018-06-22T06:59:25.820Z,1.23
2018-06-22T07:01:55.854Z,1.20
2018-06-22T07:04:25.871Z,1.10
2018-06-22T07:06:55.682Z,0.97
2018-06-22T07:09:25.906Z,1.43
2018-06-22T07:11:55.822Z,0.90
2018-06-22T07:14:25.665Z,1.00
2018-06-22T07:16:55.550Z,1.20
2018-06-22T07:19:25.564Z,1.00
2018-06-22T07:21:55.576Z,1.17
2018-06-22T07:24:25.397Z,1.40
2018-06-22T07:26:55.000Z,1.23
2018-06-22T07:29:24.602Z,1.33
2018-06-22T07:31:54.211Z,1.30
2018-06-22T07:34:24.344Z,1.23
2018-06-22T07:36:54.140Z,1.30
2018-06-22T07:39:24.167Z,1.10
2018-06-22T07:41:53.971Z,1.20
2018-06-22T07:44:23.790Z,1.07
2018-06-22T07:46:53.181Z,1.10
2018-06-22T07:49:22.276Z,1.17
2018-06-22T07:51:52.401Z,1.27
2018-06-22T07:54:22.527Z,1.17
2018-06-22T07:56:52.743Z,1.30
2018-06-22T07:59:23.584Z,1.30
2018-06-22T08:01:53.590Z,1.27
2018-06-22T08:04:23.404Z,1.43
2018-06-22T08:06:53.118Z,1.00
2018-06-22T08:09:22.627Z,1.20
2018-06-22T08:11:52.219Z,1.10
2018-06-22T08:14:22.769Z,1.07
2018-06-22T08:16:52.426Z,1.20
2018-06-22T08:19:21.757Z,1.37
2018-06-22T08:21:51.160Z,0.80
2018-06-22T08:24:20.459Z,1.17
2018-06-22T08:26:49.772Z,0.80
2018-06-22T08:29:19.161Z,0.80
2018-06-22T08:31:48.589Z,0.87
2018-06-22T08:34:17.773Z,1.20
2018-06-22T08:36:47.287Z,1.53
2018-06-22T08:39:16.686Z,1.20
2018-06-22T08:41:46.861Z,1.40
2018-06-22T08:44:16.399Z,1.20
2018-06-22T08:46:46.100Z,1.47
2018-06-22T08:49:15.714Z,1.27
2018-06-22T08:51:45.112Z,1.00
2018-06-22T08:54:14.619Z,1.00
2018-06-22T08:56:43.916Z,1.03
2018-06-22T08:59:13.420Z,0.97
2018-06-22T09:01:43.231Z,0.97
2018-06-22T09:04:13.973Z,1.17
2018-06-22T09:06:43.571Z,0.90
2018-06-22T09:09:12.985Z,1.00
2018-06-22T09:11:42.479Z,0.60
2018-06-22T09:14:17.306Z,0.77
2018-06-22T09:16:56.341Z,1.10
2018-06-22T09:19:26.455Z,1.00
2018-06-22T09:21:57.093Z,0.97
2018-06-22T09:24:27.512Z,1.03
2018-06-22T09:26:57.639Z,0.97
2018-06-22T09:29:28.370Z,0.87
2018-06-22T09:31:58.902Z,0.80
2018-06-22T09:34:30.145Z,0.70
2018-06-22T09:37:00.074Z,1.00
2018-06-22T09:39:32.636Z,0.80
2018-06-22T09:42:02.033Z,1.13
2018-06-22T09:44:42.393Z,1.03
2018-06-22T09:47:12.100Z,1.00
2018-06-22T09:49:41.795Z,1.07
2018-06-22T09:52:11.516Z,1.00
2018-06-22T09:54:41.538Z,1.20
2018-06-22T09:57:11.245Z,1.37
2018-06-22T09:59:41.267Z,1.40
2018-06-22T10:02:11.192Z,1.20
2018-06-22T10:04:41.049Z,1.17
2018-06-22T10:07:12.338Z,1.03
2018-06-22T10:09:42.144Z,1.30
2018-06-22T10:12:12.775Z,1.20
2018-06-22T10:14:42.603Z,1.37
2018-06-22T10:17:12.299Z,1.13
2018-06-22T10:19:42.178Z,1.20
2018-06-22T10:22:12.229Z,1.47
2018-06-22T10:24:41.940Z,1.37
2018-06-22T10:27:12.009Z,1.40
2018-06-22T10:29:41.870Z,1.37
2018-06-22T10:32:12.092Z,1.50
2018-06-22T10:34:42.211Z,1.20
2018-06-22T10:37:12.535Z,1.37
2018-06-22T10:39:42.767Z,1.43
2018-06-22T10:42:12.566Z,1.37
2018-06-22T10:44:42.586Z,1.30
2018-06-22T10:47:12.504Z,1.00
2018-06-22T10:49:42.920Z,1.00
2018-06-22T10:52:12.942Z,0.90
2018-06-22T10:54:42.843Z,0.63
2018-06-22T10:57:12.859Z,0.80
2018-06-22T10:59:43.073Z,0.90
2018-06-22T11:02:13.820Z,1.07
2018-06-22T11:04:44.355Z,0.90
2018-06-22T11:07:14.573Z,1.37
2018-06-22T11:09:47.674Z,1.00
2018-06-22T11:12:17.887Z,1.70
2018-06-22T11:14:47.394Z,1.67
2018-06-22T11:17:17.069Z,1.77
2018-06-22T11:19:47.116Z,1.67
2018-06-22T11:22:17.046Z,1.53
2018-06-22T11:24:52.586Z,1.00
2018-06-22T11:27:24.185Z,1.20
2018-06-22T11:29:54.175Z,1.50
2018-06-22T11:32:24.264Z,1.83
2018-06-22T11:34:53.769Z,1.70
2018-06-22T11:37:23.684Z,1.50
2018-06-22T11:39:53.706Z,1.40
2018-06-22T11:42:25.567Z,1.90
2018-06-22T11:44:55.576Z,1.80
2018-06-22T11:47:25.591Z,1.87
2018-06-22T11:49:55.719Z,1.63
2018-06-22T11:52:25.625Z,1.80
2018-06-22T11:54:55.347Z,1.70
2018-06-22T11:57:25.167Z,1.40
2018-06-22T11:59:55.470Z,1.57
2018-06-22T12:02:25.788Z,1.33
2018-06-22T12:04:56.014Z,1.50
2018-06-22T12:07:26.140Z,1.23
2018-06-22T12:09:56.456Z,1.40
2018-06-22T12:12:26.580Z,1.37
2018-06-22T12:14:55.882Z,1.27
2018-06-22T12:17:25.485Z,1.40
2018-06-22T12:19:55.499Z,1.67
2018-06-22T12:22:27.157Z,1.60
2018-06-22T12:24:57.582Z,1.57
2018-06-22T12:27:28.344Z,1.70
2018-06-22T12:29:59.563Z,1.30
2018-06-22T12:32:30.086Z,1.43
2018-06-22T12:35:00.227Z,1.93
2018-06-22T12:37:30.548Z,1.23
2018-06-22T12:40:00.240Z,1.67
2018-06-22T12:42:30.168Z,1.50
2018-06-22T12:44:59.903Z,1.20
2018-06-22T12:47:29.980Z,1.23
2018-06-22T12:50:00.200Z,1.20
2018-06-22T12:52:30.017Z,1.50
2018-06-22T12:55:00.043Z,1.20
2018-06-22T12:57:30.173Z,1.00
2018-06-22T12:59:59.962Z,1.30
2018-06-22T13:02:30.388Z,1.30
2018-06-22T13:05:00.201Z,1.23
2018-06-22T13:07:30.118Z,1.00
2018-06-22T13:10:00.036Z,1.33
2018-06-22T13:12:30.041Z,1.53
2018-06-22T13:15:00.569Z,1.30
2018-06-22T13:17:30.075Z,1.20
2018-06-22T13:20:00.812Z,0.80
2018-06-22T13:22:30.621Z,1.33
2018-06-22T13:25:00.234Z,1.70
2018-06-22T13:27:31.695Z,1.40
2018-06-22T13:30:01.797Z,1.83
2018-06-22T13:32:31.917Z,1.70
2018-06-22T13:35:01.819Z,1.37
2018-06-22T13:37:31.839Z,1.30
2018-06-22T13:40:02.279Z,1.33
2018-06-22T13:42:32.492Z,1.70
2018-06-22T13:45:02.616Z,1.57
2018-06-22T13:47:32.530Z,1.77
2018-06-22T13:50:02.774Z,1.50
2018-06-22T13:52:33.073Z,1.47
2018-06-22T13:55:04.240Z,1.07
2018-06-22T13:57:35.128Z,1.40
2018-06-22T14:00:05.477Z,1.27
2018-06-22T14:02:35.592Z,1.60
2018-06-22T14:05:09.410Z,1.50
2018-06-22T14:07:39.795Z,1.40
2018-06-22T14:10:11.189Z,1.50
2018-06-22T14:12:41.409Z,0.93
2018-06-22T14:15:12.251Z,1.20
2018-06-22T14:17:42.145Z,1.53
2018-06-22T14:20:12.627Z,1.40
2018-06-22T14:22:42.391Z,1.40
2018-06-22T14:25:11.992Z,1.50
2018-06-22T14:27:41.600Z,1.10
2018-06-22T14:30:11.205Z,1.20
2018-06-22T14:32:40.934Z,1.30
2018-06-22T14:35:10.624Z,1.30
2018-06-22T14:37:40.435Z,1.13
2018-06-22T14:40:10.167Z,1.00
2018-06-22T14:42:39.966Z,1.17
2018-06-22T14:45:10.588Z,1.00
2018-06-22T14:47:40.398Z,0.80
2018-06-22T14:50:14.440Z,1.00
2018-06-22T14:52:44.220Z,0.90
2018-06-22T14:55:18.031Z,0.93
2018-06-22T14:57:52.239Z,0.70
2018-06-22T15:00:26.262Z,0.90
2018-06-22T15:03:00.670Z,1.10
2018-06-22T15:05:34.679Z,1.00
2018-06-22T15:08:06.334Z,1.50
2018-06-22T15:10:36.562Z,1.03
2018-06-22T15:13:06.678Z,1.30
2018-06-22T15:15:35.983Z,1.20
2018-06-22T15:18:14.391Z,1.07
2018-06-22T15:20:44.734Z,0.80
2018-06-22T15:23:18.336Z,0.83
2018-06-22T15:25:48.232Z,0.80
2018-06-22T15:28:18.241Z,1.10
2018-06-22T15:30:48.056Z,0.80
2018-06-22T15:33:21.764Z,0.70
2018-06-22T15:35:55.561Z,0.53
2018-06-22T15:38:29.676Z,0.67
2018-06-22T15:41:03.716Z,0.73
2018-06-22T15:43:36.980Z,0.80
2018-06-22T15:46:10.687Z,0.90
2018-06-22T15:48:47.669Z,0.80
2018-06-22T15:51:21.717Z,0.80
2018-06-22T15:53:55.481Z,1.00
2018-06-22T15:56:26.112Z,0.83
2018-06-22T15:58:56.020Z,0.70
2018-06-22T16:01:26.147Z,0.80
2018-06-22T16:04:00.067Z,0.80
2018-06-22T16:06:30.287Z,1.03
2018-06-22T16:09:00.600Z,0.80
2018-06-22T16:11:31.232Z,1.00
2018-06-22T16:14:04.829Z,0.53
2018-06-22T16:16:39.156Z,0.70
2018-06-22T16:19:13.136Z,0.90
2018-06-22T16:21:47.482Z,1.20
2018-06-22T16:24:21.277Z,1.10
2018-06-22T16:26:55.080Z,1.03
2018-06-22T16:29:24.698Z,0.90
2018-06-22T16:31:54.633Z,0.70
2018-06-22T16:34:24.127Z,0.77
2018-06-22T16:36:53.743Z,0.60
2018-06-22T16:39:23.335Z,0.43
2018-06-22T16:41:52.829Z,0.60
2018-06-22T16:44:22.344Z,0.70
2018-06-22T16:46:51.630Z,0.80
2018-06-22T16:49:21.132Z,0.60
2018-06-22T16:51:50.781Z,0.60
2018-06-22T16:54:20.683Z,0.80
2018-06-22T16:56:50.566Z,1.10
2018-06-22T16:59:20.691Z,0.70
2018-06-22T17:01:50.092Z,0.80
2018-06-22T17:04:20.027Z,0.90
2018-06-22T17:06:54.132Z,1.10
2018-06-22T17:09:27.824Z,1.00
2018-06-22T17:12:01.442Z,1.23
2018-06-22T17:14:35.023Z,0.70
2018-06-22T17:17:09.052Z,0.70
2018-06-22T17:19:40.279Z,0.83
2018-06-22T17:22:09.795Z,0.87
2018-06-22T17:24:39.386Z,1.10
2018-06-22T17:27:09.769Z,1.00
2018-06-22T17:29:39.623Z,0.67
2018-06-22T17:32:13.023Z,0.80
2018-06-22T17:34:43.272Z,1.00
2018-06-22T17:37:12.842Z,0.90
2018-06-22T17:39:43.173Z,0.70
2018-06-22T17:42:13.600Z,1.20
2018-06-22T17:44:43.231Z,0.70
2018-06-22T17:47:13.015Z,0.50
2018-06-22T17:49:42.623Z,0.87
2018-06-22T17:52:12.843Z,0.60
2018-06-22T17:54:43.173Z,0.67
2018-06-22T17:57:12.671Z,0.87
2018-06-22T17:59:46.181Z,0.50
2018-06-22T18:02:19.802Z,0.70
2018-06-22T18:04:53.168Z,0.60
2018-06-22T18:07:26.895Z,0.77
2018-06-22T18:10:00.612Z,0.67
2018-06-22T18:12:34.263Z,0.80
2018-06-22T18:15:03.689Z,0.70
2018-06-22T18:17:33.724Z,0.70
2018-06-22T18:20:03.357Z,0.80
2018-06-22T18:22:33.135Z,0.80
2018-06-22T18:25:02.724Z,0.90
2018-06-22T18:27:32.748Z,0.70
2018-06-22T18:30:02.371Z,0.90
2018-06-22T18:32:31.781Z,0.97
2018-06-22T18:35:01.148Z,1.13
2018-06-22T18:37:30.773Z,0.90
2018-06-22T18:40:00.366Z,1.20
2018-06-22T18:42:30.092Z,1.00
2018-06-22T18:44:59.692Z,1.10
2018-06-22T18:47:29.608Z,1.00
2018-06-22T18:49:59.313Z,0.97
2018-06-22T18:52:33.310Z,1.00
2018-06-22T18:55:07.120Z,1.40
2018-06-22T18:57:41.126Z,1.33
2018-06-22T19:00:15.239Z,2.10
2018-06-22T19:02:49.064Z,1.60
2018-06-22T19:05:19.068Z,1.20
2018-06-22T19:07:49.089Z,1.13
2018-06-22T19:10:18.689Z,1.80
2018-06-22T19:12:48.933Z,1.73
2018-06-22T19:15:19.344Z,1.43
2018-06-22T19:17:49.262Z,2.10
2018-06-22T19:20:18.867Z,1.60
2018-06-22T19:22:48.371Z,1.40
2018-06-22T19:25:18.172Z,1.63
2018-06-22T19:27:47.576Z,1.83
2018-06-22T19:30:17.082Z,2.13
2018-06-22T19:32:46.786Z,2.03
2018-06-22T19:35:16.292Z,1.30
2018-06-22T19:37:46.105Z,2.10
2018-06-22T19:40:15.778Z,1.50
2018-06-22T19:42:45.321Z,1.63
2018-06-22T19:45:18.918Z,1.30
2018-06-22T19:47:52.755Z,1.50
2018-06-22T19:50:26.632Z,1.40
2018-06-22T19:53:00.352Z,1.20
2018-06-22T19:55:30.249Z,1.40
2018-06-22T19:57:59.771Z,1.37
2018-06-22T20:00:29.633Z,1.10
2018-06-22T20:02:59.414Z,1.53
2018-06-22T20:05:28.900Z,1.20
2018-06-22T20:07:58.622Z,1.40
2018-06-22T20:10:28.112Z,2.10
2018-06-22T20:31:42.774Z,2.33
2018-06-22T20:34:16.381Z,2.87
2018-06-22T20:36:50.294Z,2.97
2018-06-22T20:39:23.803Z,3.40
2018-06-22T20:41:57.581Z,2.63
2018-06-22T20:44:30.779Z,3.30
2018-06-22T20:47:04.077Z,2.80
2018-06-22T20:49:37.693Z,2.20
2018-06-22T20:52:07.297Z,2.00
2018-06-22T20:54:36.578Z,2.63
2018-06-22T20:57:06.189Z,2.07
2018-06-22T20:59:35.584Z,3.00
2018-06-22T21:02:05.396Z,2.17
2018-06-22T21:04:34.913Z,2.43
2018-06-22T21:07:04.530Z,1.93
2018-06-22T21:09:39.542Z,2.13
2018-06-22T21:12:09.160Z,2.13
2018-06-22T21:14:38.772Z,2.40
2018-06-22T21:17:08.260Z,2.83
2018-06-22T21:19:37.783Z,2.40
2018-06-22T21:22:11.269Z,2.33
2018-06-22T21:24:41.393Z,2.53
2018-06-22T21:27:14.886Z,2.63
2018-06-22T21:29:48.683Z,2.53
2018-06-22T21:32:22.290Z,2.07
2018-06-22T21:34:55.686Z,2.03
2018-06-22T21:37:29.281Z,2.30
2018-06-22T21:39:58.492Z,1.93
2018-06-22T21:42:27.893Z,2.23
2018-06-22T21:44:57.386Z,1.90
2018-06-22T21:47:27.098Z,2.23
2018-06-22T21:49:56.602Z,2.40
2018-06-22T21:52:26.114Z,2.10
2018-06-22T21:54:55.417Z,2.00
2018-06-22T21:57:25.016Z,2.17
2018-06-22T21:59:54.727Z,2.07
2018-06-22T22:02:24.225Z,2.07
2018-06-22T22:04:53.942Z,1.97
2018-06-22T22:07:23.337Z,1.90
2018-06-22T22:09:52.962Z,2.10
2018-06-22T22:12:22.684Z,2.03
2018-06-22T22:14:52.056Z,1.90
2018-06-22T22:17:21.253Z,2.23
2018-06-22T22:19:50.665Z,2.23
2018-06-22T22:22:19.974Z,1.70
2018-06-22T22:24:49.684Z,2.50
2018-06-22T22:27:18.962Z,2.27
2018-06-22T22:29:48.571Z,2.00
2018-06-22T22:32:18.178Z,2.03
2018-06-22T22:34:47.587Z,1.93
2018-06-22T22:37:17.104Z,2.10
2018-06-22T22:39:47.013Z,2.50
2018-06-22T22:42:16.398Z,2.03
2018-06-22T22:44:46.014Z,2.23
2018-06-22T22:47:15.508Z,1.90
2018-06-22T22:49:45.020Z,2.30
2018-06-22T22:52:14.422Z,1.93
2018-06-22T22:54:45.059Z,2.57
2018-06-22T22:57:14.448Z,2.10
2018-06-22T22:59:50.098Z,2.00
2018-06-22T23:02:19.621Z,1.97
2018-06-22T23:04:49.325Z,1.70
2018-06-22T23:07:18.719Z,2.43
2018-06-22T23:09:48.234Z,1.90
2018-06-22T23:12:17.952Z,2.57
2018-06-22T23:14:47.233Z,1.90
2018-06-22T23:17:16.661Z,2.23
2018-06-22T23:19:46.363Z,2.10
2018-06-22T23:22:15.775Z,1.80
2018-06-22T23:24:45.158Z,1.70
2018-06-22T23:27:14.772Z,1.90
2018-06-22T23:29:44.374Z,1.87
2018-06-22T23:32:13.973Z,2.30
2018-06-22T23:34:43.376Z,2.10
2018-06-22T23:37:13.104Z,2.07
2018-06-22T23:39:42.272Z,2.20
2018-06-22T23:42:11.602Z,1.60
2018-06-22T23:44:40.874Z,2.23
2018-06-22T23:47:10.171Z,1.97
2018-06-22T23:49:39.892Z,1.97
2018-06-22T23:52:09.384Z,1.80
2018-06-22T23:54:38.995Z,2.07
2018-06-22T23:57:08.402Z,2.20
2018-06-22T23:59:38.221Z,1.77
